Time;durP1;ratioP1;P1;durP2;ratioP2;P2;SDS_P1;SDS_P2;PMS_P1;PMS_P2;Temp;Humidity;BMP_temperature;BMP_pressure;BME280_temperature;BME280_humidity;BME280_pressure;Samples;Min_cycle;Max_cycle;Signal;HPM_P1;HPM_P2
2023/02/10 00:01:35;;;;;;;46.17;24.73;;;6.00;99.90;;;;;;4211412;28;20399;-68
2023/02/10 00:03:37;;;;;;;39.53;22.35;;;6.10;99.90;;;;;;4209428;28;20058;-68
2023/02/10 00:05:37;;;;;;;45.88;24.23;;;6.10;99.90;;;;;;4210835;28;20024;-68
2023/02/10 00:07:38;;;;;;;44.80;25.17;;;6.10;99.90;;;;;;4211393;28;20391;-68
2023/02/10 00:09:39;;;;;;;49.40;26.17;;;6.10;99.90;;;;;;4211765;28;20035;-68
2023/02/10 00:11:59;;;;;;;44.55;24.17;;;6.10;99.90;;;;;;4211182;28;20032;-69
2023/02/10 00:14:00;;;;;;;44.10;24.90;;;6.10;99.90;;;;;;4209215;28;20039;-68
2023/02/10 00:16:02;;;;;;;47.60;25.65;;;6.10;99.90;;;;;;4205853;28;20028;-68
2023/02/10 00:18:03;;;;;;;49.83;25.55;;;6.10;99.90;;;;;;4211107;28;20028;-68
2023/02/10 00:20:03;;;;;;;46.72;26.27;;;6.10;99.90;;;;;;4209856;28;20399;-69
2023/02/10 00:22:04;;;;;;;47.00;25.40;;;6.10;99.90;;;;;;4210471;28;20028;-68
2023/02/10 00:24:05;;;;;;;47.40;25.33;;;6.10;99.90;;;;;;4210121;28;20031;-68
2023/02/10 00:26:07;;;;;;;50.42;25.85;;;6.10;99.90;;;;;;4210490;28;20045;-68
2023/02/10 00:28:08;;;;;;;49.25;26.05;;;6.10;99.90;;;;;;4211370;28;24969;-68
2023/02/10 00:30:09;;;;;;;44.50;25.10;;;6.10;99.90;;;;;;4210043;28;20039;-71
2023/02/10 00:32:10;;;;;;;47.58;25.17;;;6.20;99.90;;;;;;4211000;28;20446;-69
2023/02/10 00:34:14;;;;;;;48.83;26.80;;;6.20;99.90;;;;;;4192522;28;20036;-68
2023/02/10 00:36:15;;;;;;;52.53;27.70;;;6.10;99.90;;;;;;4209695;28;20035;-69
2023/02/10 00:38:17;;;;;;;53.60;27.40;;;6.10;99.90;;;;;;4209989;28;20036;-68
2023/02/10 00:40:18;;;;;;;45.47;24.50;;;6.10;99.90;;;;;;4210782;28;20024;-68
2023/02/10 00:42:18;;;;;;;41.85;24.05;;;6.10;99.90;;;;;;4211203;28;20479;-67
2023/02/10 00:44:19;;;;;;;46.35;25.27;;;6.20;99.90;;;;;;4209956;28;20034;-68
2023/02/10 00:46:21;;;;;;;46.47;25.17;;;6.20;99.90;;;;;;4209548;28;20471;-68
2023/02/10 00:48:22;;;;;;;48.95;26.02;;;6.20;99.90;;;;;;4211166;28;20036;-69
2023/02/10 00:50:22;;;;;;;45.90;26.45;;;6.20;99.90;;;;;;4210033;28;20117;-68
2023/02/10 00:52:23;;;;;;;46.08;25.23;;;6.20;99.90;;;;;;4210577;28;20052;-68
2023/02/10 00:54:23;;;;;;;52.72;26.70;;;6.20;99.90;;;;;;4210172;28;20114;-68
2023/02/10 00:56:24;;;;;;;46.22;25.95;;;6.20;99.90;;;;;;4209714;28;20036;-69
2023/02/10 00:58:25;;;;;;;47.60;25.60;;;6.20;99.90;;;;;;4210658;28;20036;-68
2023/02/10 01:00:25;;;;;;;46.33;25.58;;;6.20;99.90;;;;;;4209985;28;20040;-68
2023/02/10 01:02:26;;;;;;;48.40;27.70;;;6.30;99.90;;;;;;4210337;28;20031;-67
2023/02/10 01:04:27;;;;;;;44.78;25.70;;;6.30;99.90;;;;;;4209957;28;20040;-69
2023/02/10 01:06:27;;;;;;;48.05;26.63;;;6.30;99.90;;;;;;4206528;28;20032;-68
2023/02/10 01:08:28;;;;;;;44.38;24.73;;;6.30;99.90;;;;;;4211263;28;20028;-68
2023/02/10 01:10:29;;;;;;;54.97;27.23;;;6.30;99.90;;;;;;4209766;28;20073;-67
2023/02/10 01:12:29;;;;;;;47.00;25.48;;;6.30;99.90;;;;;;4210349;28;20040;-68
2023/02/10 01:14:30;;;;;;;44.53;24.30;;;6.30;99.90;;;;;;4209363;28;20111;-68
2023/02/10 01:16:31;;;;;;;43.28;24.90;;;6.30;99.90;;;;;;4209263;28;20036;-68
2023/02/10 01:18:31;;;;;;;51.08;26.85;;;6.30;99.90;;;;;;4210480;28;20028;-67
2023/02/10 01:20:32;;;;;;;46.92;25.50;;;6.30;99.90;;;;;;4209820;28;20028;-68
2023/02/10 01:22:33;;;;;;;43.47;25.00;;;6.30;99.90;;;;;;4210020;28;20020;-68
2023/02/10 01:24:33;;;;;;;44.92;23.70;;;6.30;99.90;;;;;;4210093;28;20032;-68
2023/02/10 01:26:34;;;;;;;51.35;27.27;;;6.30;99.90;;;;;;4210216;28;20036;-68
2023/02/10 01:28:39;;;;;;;45.92;26.00;;;6.30;99.90;;;;;;4209958;28;20437;-68
2023/02/10 01:30:39;;;;;;;45.05;26.10;;;6.30;99.90;;;;;;4209712;28;20055;-68
2023/02/10 01:32:40;;;;;;;48.15;25.33;;;6.30;99.90;;;;;;4209980;28;20469;-69
2023/02/10 01:34:40;;;;;;;47.67;27.50;;;6.30;99.90;;;;;;4209889;28;20459;-68
2023/02/10 01:36:41;;;;;;;46.20;24.92;;;6.30;99.90;;;;;;4209853;28;20036;-69
2023/02/10 01:38:42;;;;;;;39.30;23.90;;;6.30;99.90;;;;;;4210575;28;20028;-68
2023/02/10 01:40:43;;;;;;;44.10;24.50;;;6.30;99.90;;;;;;4209699;28;20024;-68
2023/02/10 01:42:45;;;;;;;46.35;25.42;;;6.30;99.90;;;;;;4209741;28;20525;-68
2023/02/10 01:44:46;;;;;;;;;;;6.30;99.90;;;;;;4191426;28;20052;-69
2023/02/10 01:46:48;;;;;;;46.40;25.55;;;6.30;99.90;;;;;;4208531;28;19912;-68
2023/02/10 01:48:50;;;;;;;44.63;25.17;;;6.30;99.90;;;;;;4209545;28;20123;-67
2023/02/10 01:51:04;;;;;;;46.28;26.45;;;6.30;99.90;;;;;;4209651;28;20868;-68
2023/02/10 01:53:05;;;;;;;52.15;27.05;;;6.20;99.90;;;;;;4190906;28;20048;-68
2023/02/10 01:55:08;;;;;;;50.53;27.17;;;6.20;99.90;;;;;;4207740;28;20032;-68
2023/02/10 01:57:10;;;;;;;49.22;27.05;;;6.20;99.90;;;;;;4208092;28;20518;-68
2023/02/10 01:59:12;;;;;;;50.20;26.90;;;6.20;99.90;;;;;;4204990;28;20414;-68
2023/02/10 02:01:12;;;;;;;48.33;27.25;;;6.20;99.90;;;;;;4208655;28;20032;-68
2023/02/10 02:03:14;;;;;;;51.42;26.83;;;6.20;99.90;;;;;;4208107;28;20427;-68
2023/02/10 02:05:29;;;;;;;50.60;27.80;;;6.20;99.90;;;;;;4209007;28;20142;-69
2023/02/10 02:07:34;;;;;;;50.38;28.15;;;6.10;99.90;;;;;;4208091;28;20070;-68
2023/02/10 02:09:34;;;;;;;49.17;26.70;;;6.10;99.90;;;;;;4210046;28;20032;-68
2023/02/10 02:11:55;;;;;;;44.80;25.73;;;6.00;99.90;;;;;;4209650;28;20035;-68
2023/02/10 02:14:33;;;;;;;50.33;27.15;;;6.00;99.90;;;;;;4207132;28;20181;-68
2023/02/10 02:16:52;;;;;;;45.40;24.80;;;6.10;99.90;;;;;;4173532;28;20103;-68
2023/02/10 02:19:20;;;;;;;46.83;26.95;;;6.00;99.90;;;;;;4208517;28;20391;-68
2023/02/10 02:22:09;;;;;;;45.88;26.27;;;6.00;99.90;;;;;;4206266;28;20047;-68
2023/02/10 02:24:50;;;;;;;46.33;26.35;;;6.00;99.90;;;;;;4192281;28;20040;-68
2023/02/10 02:27:06;;;;;;;48.85;27.15;;;6.00;99.90;;;;;;4212985;28;20047;-68
2023/02/10 02:29:49;;;;;;;53.20;28.55;;;6.00;99.90;;;;;;4218319;28;20035;-68
2023/02/10 02:32:10;;;;;;;46.57;26.00;;;6.00;99.90;;;;;;4207469;28;20473;-69
2023/02/10 02:34:38;;;;;;;48.60;25.77;;;6.00;99.90;;;;;;4206001;28;20028;-68
2023/02/10 02:37:02;;;;;;;53.97;28.33;;;6.00;99.90;;;;;;4207214;28;20043;-68
2023/02/10 02:39:04;;;;;;;48.47;27.55;;;5.90;99.90;;;;;;4207960;28;20058;-68
2023/02/10 02:41:05;;;;;;;50.20;27.15;;;5.90;99.90;;;;;;4208993;28;20036;-68
2023/02/10 02:43:06;;;;;;;50.13;28.20;;;5.90;99.90;;;;;;4207585;28;20040;-68
2023/02/10 02:45:26;;;;;;;55.35;29.13;;;5.90;99.90;;;;;;4208210;28;20391;-68
2023/02/10 02:47:46;;;;;;;54.25;27.98;;;5.80;99.90;;;;;;4207300;28;20032;-67
2023/02/10 02:50:22;;;;;;;49.70;27.10;;;5.80;99.90;;;;;;4206674;28;20426;-68
2023/02/10 02:52:42;;;;;;;51.53;27.83;;;5.80;99.90;;;;;;4208623;28;20032;-68
2023/02/10 02:54:54;;;;;;;46.40;26.42;;;5.80;99.90;;;;;;4204749;28;20035;-68
2023/02/10 02:57:29;;;;;;;47.13;27.52;;;5.80;99.90;;;;;;4208184;28;20360;-67
2023/02/10 02:59:56;;;;;;;51.30;28.80;;;5.80;99.90;;;;;;4154976;28;20029;-67
2023/02/10 03:02:13;;;;;;;54.20;29.38;;;5.70;99.90;;;;;;4190838;28;20029;-68
2023/02/10 03:04:16;;;;;;;51.65;26.65;;;5.70;99.90;;;;;;4190479;28;20033;-68
2023/02/10 03:06:16;;;;;;;50.80;28.80;;;5.60;99.90;;;;;;4190035;28;20068;-69
2023/02/10 03:08:17;;;;;;;48.28;27.65;;;5.60;99.90;;;;;;4194061;28;20036;-68
2023/02/10 03:10:17;;;;;;;50.50;26.88;;;5.60;99.90;;;;;;4191960;28;20037;-68
2023/02/10 03:12:18;;;;;;;47.53;26.48;;;5.60;99.90;;;;;;4196385;28;20044;-68
2023/02/10 03:14:18;;;;;;;49.17;26.55;;;5.60;99.90;;;;;;4194079;28;20055;-68
2023/02/10 03:16:19;;;;;;;48.63;26.35;;;5.60;99.90;;;;;;4193200;28;20403;-68
2023/02/10 03:18:20;;;;;;;45.67;25.98;;;5.60;99.90;;;;;;4190486;28;20033;-68
2023/02/10 03:20:20;;;;;;;49.85;27.58;;;5.60;99.90;;;;;;4194951;28;20471;-67
2023/02/10 03:22:21;;;;;;;48.67;26.92;;;5.60;99.90;;;;;;4194477;28;20031;-67
2023/02/10 03:24:22;;;;;;;48.67;26.63;;;5.50;99.90;;;;;;4190010;28;20104;-67
2023/02/10 03:26:22;;;;;;;54.78;29.42;;;5.50;99.90;;;;;;4196806;28;20044;-67
2023/02/10 03:28:23;;;;;;;52.15;28.23;;;5.40;99.90;;;;;;4195320;28;20060;-67
2023/02/10 03:30:24;;;;;;;49.30;26.67;;;5.40;99.90;;;;;;4193442;28;20167;-68
2023/02/10 03:32:24;;;;;;;48.60;26.35;;;5.40;99.90;;;;;;4195235;28;20158;-68
2023/02/10 03:34:25;;;;;;;48.20;26.13;;;5.40;99.90;;;;;;4193612;28;20035;-68
2023/02/10 03:36:25;;;;;;;50.22;27.02;;;5.30;99.90;;;;;;4188620;28;20653;-68
2023/02/10 03:38:26;;;;;;;47.42;26.95;;;5.30;99.90;;;;;;4188452;28;20068;-68
2023/02/10 03:40:27;;;;;;;47.38;27.08;;;5.30;99.90;;;;;;4184876;28;20035;-68
2023/02/10 03:42:27;;;;;;;51.20;28.00;;;5.20;99.90;;;;;;4190313;28;20484;-68
2023/02/10 03:44:28;;;;;;;49.83;27.10;;;5.20;99.90;;;;;;4189976;28;20040;-68
2023/02/10 03:46:29;;;;;;;46.42;25.55;;;5.30;99.90;;;;;;4186430;28;20056;-67
2023/02/10 03:48:33;;;;;;;47.55;26.95;;;5.20;99.90;;;;;;4186035;28;20503;-67
2023/02/10 03:50:34;;;;;;;47.35;26.85;;;5.20;99.90;;;;;;4193574;28;20398;-67
2023/02/10 03:52:34;;;;;;;42.72;25.50;;;5.10;99.90;;;;;;4194163;28;20040;-68
2023/02/10 03:54:35;;;;;;;48.55;27.25;;;5.10;99.90;;;;;;4194531;28;20032;-67
2023/02/10 03:56:35;;;;;;;51.38;26.50;;;5.10;99.90;;;;;;4194187;28;20036;-67
2023/02/10 03:58:36;;;;;;;50.72;26.08;;;5.10;99.90;;;;;;4194505;28;20586;-67
2023/02/10 04:00:37;;;;;;;53.67;28.13;;;5.10;99.90;;;;;;4192766;28;20055;-67
2023/02/10 04:02:37;;;;;;;50.50;27.02;;;5.10;99.90;;;;;;4193031;28;20818;-67
2023/02/10 04:04:38;;;;;;;47.08;25.88;;;5.00;99.90;;;;;;4207932;28;20044;-67
2023/02/10 04:06:38;;;;;;;41.30;24.65;;;5.00;99.90;;;;;;4210650;28;20090;-68
2023/02/10 04:08:39;;;;;;;47.13;26.27;;;5.00;99.90;;;;;;4210264;28;20043;-68
2023/02/10 04:10:40;;;;;;;45.10;26.38;;;5.10;99.90;;;;;;4205719;28;20032;-67
2023/02/10 04:12:41;;;;;;;43.33;23.25;;;5.10;99.90;;;;;;4208490;28;20055;-67
2023/02/10 04:14:41;;;;;;;46.75;25.67;;;5.10;99.90;;;;;;4193995;28;20070;-68
2023/02/10 04:16:42;;;;;;;49.45;26.92;;;5.10;99.90;;;;;;4194111;28;20395;-67
2023/02/10 04:18:43;;;;;;;47.80;26.50;;;5.10;99.90;;;;;;4192853;28;20052;-68
2023/02/10 04:20:43;;;;;;;47.47;26.25;;;5.10;99.90;;;;;;4191180;28;20033;-68
2023/02/10 04:22:44;;;;;;;53.83;27.08;;;5.10;99.90;;;;;;4193768;28;20361;-67
2023/02/10 04:24:44;;;;;;;47.80;26.02;;;5.10;99.90;;;;;;4177002;28;20041;-67
2023/02/10 04:26:45;;;;;;;49.58;26.63;;;5.00;99.90;;;;;;4202632;28;20070;-68
2023/02/10 04:28:45;;;;;;;49.67;25.67;;;5.00;99.90;;;;;;4201842;28;20033;-68
2023/02/10 04:30:53;;;;;;;46.88;26.40;;;5.00;99.90;;;;;;4203737;28;20028;-68
2023/02/10 04:32:54;;;;;;;45.25;25.25;;;5.00;99.90;;;;;;4194713;28;20115;-67
2023/02/10 04:34:55;;;;;;;48.75;27.42;;;5.00;99.90;;;;;;4206704;28;20083;-67
2023/02/10 04:36:55;;;;;;;46.03;26.10;;;4.90;99.90;;;;;;4203049;28;20024;-67
2023/02/10 04:38:56;;;;;;;54.97;27.30;;;4.90;99.90;;;;;;4210320;28;20035;-67
2023/02/10 04:40:56;;;;;;;48.17;25.88;;;4.90;99.90;;;;;;4217831;27;20024;-67
2023/02/10 04:42:57;;;;;;;51.17;26.83;;;4.80;99.90;;;;;;4211362;28;20391;-68
2023/02/10 04:44:59;;;;;;;45.63;26.67;;;4.80;99.90;;;;;;4214149;27;20020;-68
2023/02/10 04:46:59;;;;;;;47.38;26.58;;;4.70;99.90;;;;;;4209689;28;20063;-68
2023/02/10 04:49:00;;;;;;;51.80;27.13;;;4.70;99.90;;;;;;4210694;28;20028;-67
2023/02/10 04:51:06;;;;;;;50.67;26.80;;;4.70;99.90;;;;;;4218416;28;20155;-67
2023/02/10 04:53:07;;;;;;;50.50;28.63;;;4.60;99.90;;;;;;4216877;27;20032;-68
2023/02/10 04:55:07;;;;;;;54.75;29.98;;;4.50;99.90;;;;;;4215405;27;20512;-68
2023/02/10 04:57:08;;;;;;;54.13;30.27;;;4.50;99.90;;;;;;4214777;28;20108;-68
2023/02/10 04:59:08;;;;;;;51.35;28.15;;;4.50;99.90;;;;;;4214335;28;20399;-68
2023/02/10 05:01:09;;;;;;;49.78;26.40;;;4.40;99.90;;;;;;4198032;28;20039;-68
2023/02/10 05:03:09;;;;;;;52.35;28.17;;;4.40;99.90;;;;;;4199444;27;20487;-67
2023/02/10 05:05:11;;;;;;;54.83;28.73;;;4.40;99.90;;;;;;4199783;28;20493;-68
2023/02/10 05:07:12;;;;;;;53.25;28.98;;;4.40;99.90;;;;;;4205815;28;20056;-67
2023/02/10 05:09:13;;;;;;;53.55;27.98;;;4.30;99.90;;;;;;4208768;28;20051;-68
2023/02/10 05:11:14;;;;;;;55.28;29.42;;;4.30;99.90;;;;;;4204030;28;20040;-68
2023/02/10 05:13:15;;;;;;;49.47;27.42;;;4.30;99.90;;;;;;4206962;28;20031;-68
2023/02/10 05:15:16;;;;;;;51.25;26.70;;;4.30;99.90;;;;;;4203202;28;20032;-68
2023/02/10 05:17:16;;;;;;;52.30;27.23;;;4.30;99.90;;;;;;4204582;28;20032;-67
2023/02/10 05:19:17;;;;;;;49.15;27.27;;;4.30;99.90;;;;;;4209102;28;20081;-68
2023/02/10 05:21:17;;;;;;;52.55;28.10;;;4.30;99.90;;;;;;4208637;28;20483;-67
2023/02/10 05:23:18;;;;;;;55.78;28.92;;;4.30;99.90;;;;;;4206482;28;20537;-67
2023/02/10 05:25:18;;;;;;;59.85;29.48;;;4.30;99.90;;;;;;4204170;28;20386;-68
2023/02/10 05:27:19;;;;;;;53.00;27.20;;;4.20;99.90;;;;;;4207688;28;20424;-68
2023/02/10 05:29:20;;;;;;;51.25;26.00;;;4.20;99.90;;;;;;4201892;28;20024;-68
2023/02/10 05:31:20;;;;;;;52.70;28.50;;;4.30;99.90;;;;;;4205371;28;20427;-67
2023/02/10 05:33:21;;;;;;;53.10;28.52;;;4.30;99.90;;;;;;4209776;28;20375;-68
2023/02/10 05:35:21;;;;;;;46.38;26.83;;;4.20;99.90;;;;;;4205823;28;20036;-68
2023/02/10 05:37:22;;;;;;;45.33;25.88;;;4.20;99.90;;;;;;4206989;28;21203;-68
2023/02/10 05:39:22;;;;;;;47.72;26.85;;;4.30;99.90;;;;;;4209046;28;20112;-68
2023/02/10 05:41:23;;;;;;;44.60;25.42;;;4.30;99.90;;;;;;4205033;28;20085;-66
2023/02/10 05:43:24;;;;;;;45.25;25.77;;;4.30;99.90;;;;;;4209467;28;20036;-67
2023/02/10 05:45:24;;;;;;;48.60;26.13;;;4.30;99.90;;;;;;4202376;28;20051;-67
2023/02/10 05:47:25;;;;;;;47.03;25.25;;;4.30;99.90;;;;;;4207200;28;20059;-67
2023/02/10 05:49:25;;;;;;;45.88;25.48;;;4.30;99.90;;;;;;4204931;28;20315;-67
2023/02/10 05:51:26;;;;;;;46.25;25.48;;;4.30;99.90;;;;;;4209630;28;20035;-67
2023/02/10 05:53:27;;;;;;;52.08;27.90;;;4.30;99.90;;;;;;4209659;28;20081;-67
2023/02/10 05:55:27;;;;;;;47.30;25.63;;;4.30;99.90;;;;;;4206050;28;20513;-67
2023/02/10 05:57:28;;;;;;;53.85;27.90;;;4.20;99.90;;;;;;4208707;28;20060;-68
2023/02/10 05:59:29;;;;;;;53.03;28.55;;;4.20;99.90;;;;;;4208034;28;20043;-67
2023/02/10 06:01:29;;;;;;;50.92;28.90;;;4.20;99.90;;;;;;4200607;28;20498;-68
2023/02/10 06:03:30;;;;;;;49.38;27.33;;;4.20;99.90;;;;;;4209152;28;20028;-67
2023/02/10 06:05:30;;;;;;;64.05;31.70;;;4.20;99.90;;;;;;4207596;28;20441;-67
2023/02/10 06:07:31;;;;;;;57.45;30.73;;;4.20;99.90;;;;;;4210444;28;20372;-68
2023/02/10 06:09:32;;;;;;;59.38;31.15;;;4.20;99.90;;;;;;4209637;28;20077;-66
2023/02/10 06:11:32;;;;;;;58.13;30.02;;;4.20;99.90;;;;;;4207957;28;20066;-68
2023/02/10 06:13:33;;;;;;;59.15;27.52;;;4.20;99.90;;;;;;4209762;28;20032;-67
2023/02/10 06:15:34;;;;;;;52.88;28.20;;;4.20;99.90;;;;;;4200826;28;20036;-67
2023/02/10 06:17:35;;;;;;;56.15;29.58;;;4.10;99.90;;;;;;4205319;28;20506;-68
2023/02/10 06:19:36;;;;;;;50.35;28.25;;;4.20;99.90;;;;;;4207139;28;20160;-67
2023/02/10 06:21:37;;;;;;;54.90;27.90;;;4.10;99.90;;;;;;4206089;28;20039;-68
2023/02/10 06:23:37;;;;;;;55.28;29.55;;;4.10;99.90;;;;;;4200710;28;20043;-67
2023/02/10 06:25:38;;;;;;;50.08;26.70;;;4.10;99.90;;;;;;4202121;28;20082;-67
2023/02/10 06:27:38;;;;;;;59.65;31.73;;;4.10;99.90;;;;;;4203987;28;20085;-67
2023/02/10 06:29:39;;;;;;;52.92;28.65;;;4.10;99.90;;;;;;4203931;28;20113;-67
2023/02/10 06:31:39;;;;;;;49.88;27.50;;;4.10;99.90;;;;;;4202225;28;20032;-67
2023/02/10 06:33:40;;;;;;;50.97;26.98;;;4.10;99.90;;;;;;4206446;28;20035;-68
2023/02/10 06:35:41;;;;;;;48.28;26.77;;;4.10;99.90;;;;;;4203775;28;20051;-68
2023/02/10 06:37:41;;;;;;;49.33;27.98;;;4.00;99.90;;;;;;4202780;28;20028;-67
2023/02/10 06:39:42;;;;;;;55.47;29.05;;;4.10;99.90;;;;;;4206224;28;20059;-68
2023/02/10 06:41:43;;;;;;;50.47;27.17;;;4.00;99.90;;;;;;4202453;28;22516;-68
2023/02/10 06:43:43;;;;;;;53.47;28.85;;;4.00;99.90;;;;;;4207095;28;20093;-67
2023/02/10 06:45:44;;;;;;;51.22;28.02;;;4.00;99.90;;;;;;4204339;28;20370;-68
2023/02/10 06:47:44;;;;;;;55.50;29.63;;;4.00;99.90;;;;;;4209056;28;20189;-67
2023/02/10 06:49:45;;;;;;;52.40;29.20;;;4.00;99.90;;;;;;4210332;28;20036;-67
2023/02/10 06:51:45;;;;;;;55.67;30.05;;;4.00;99.90;;;;;;4209958;28;20032;-68
2023/02/10 06:53:46;;;;;;;56.83;29.48;;;4.00;99.90;;;;;;4206763;28;20047;-67
2023/02/10 06:55:46;;;;;;;56.88;29.52;;;4.00;99.90;;;;;;4207938;28;20115;-67
2023/02/10 06:57:47;;;;;;;58.20;30.58;;;3.90;99.90;;;;;;4208526;28;20070;-68
2023/02/10 06:59:48;;;;;;;56.42;29.83;;;3.90;99.90;;;;;;4207884;28;20064;-67
2023/02/10 07:01:48;;;;;;;52.67;28.35;;;3.90;99.90;;;;;;4204638;28;20032;-68
2023/02/10 07:03:49;;;;;;;57.10;31.08;;;3.90;99.90;;;;;;4208732;28;20032;-68
2023/02/10 07:05:50;;;;;;;55.80;29.95;;;3.90;99.90;;;;;;4207967;28;20048;-67
2023/02/10 07:07:53;;;;;;;57.10;30.08;;;3.90;99.90;;;;;;4208803;28;20027;-68
2023/02/10 07:09:53;;;;;;;52.28;28.35;;;3.80;99.90;;;;;;4207274;28;20551;-67
2023/02/10 07:11:54;;;;;;;58.58;29.08;;;3.80;99.90;;;;;;4204790;28;20075;-68
2023/02/10 07:13:55;;;;;;;56.85;29.48;;;3.80;99.90;;;;;;4206567;28;20043;-67
2023/02/10 07:15:56;;;;;;;56.65;29.90;;;3.80;99.90;;;;;;4206521;28;20043;-67
2023/02/10 07:17:56;;;;;;;52.30;29.00;;;3.80;99.90;;;;;;4207507;28;20047;-67
2023/02/10 07:19:57;;;;;;;57.72;31.13;;;3.80;99.90;;;;;;4208243;28;20043;-68
2023/02/10 07:21:57;;;;;;;56.03;29.67;;;3.80;99.90;;;;;;4207492;28;20036;-67
2023/02/10 07:24:00;;;;;;;60.33;30.77;;;3.80;99.90;;;;;;4206031;28;20039;-67
2023/02/10 07:26:01;;;;;;;58.17;30.45;;;3.80;99.90;;;;;;4200659;28;20048;-66
2023/02/10 07:28:01;;;;;;;52.65;28.27;;;3.80;99.90;;;;;;4198418;28;20048;-67
2023/02/10 07:30:02;;;;;;;56.42;29.77;;;3.80;99.90;;;;;;4192585;28;20020;-68
2023/02/10 07:32:03;;;;;;;54.78;29.50;;;3.80;99.90;;;;;;4170873;28;20036;-67
2023/02/10 07:34:04;;;;;;;54.13;29.25;;;3.80;99.90;;;;;;4169205;28;20045;-67
2023/02/10 07:36:06;;;;;;;55.20;29.67;;;3.80;99.90;;;;;;4169382;28;20041;-66
2023/02/10 07:38:06;;;;;;;57.78;30.98;;;3.80;99.90;;;;;;4168930;28;20068;-67
2023/02/10 07:40:07;;;;;;;59.15;30.50;;;3.80;99.90;;;;;;4170810;28;20037;-67
2023/02/10 07:42:08;;;;;;;61.33;31.27;;;3.80;99.90;;;;;;4168237;28;20116;-67
2023/02/10 07:44:08;;;;;;;55.83;30.08;;;3.80;99.90;;;;;;4171519;28;20071;-67
2023/02/10 07:46:09;;;;;;;54.78;28.90;;;3.80;99.90;;;;;;4166468;28;20346;-66
2023/02/10 07:48:10;;;;;;;51.20;28.33;;;3.80;99.90;;;;;;4170155;28;20052;-66
2023/02/10 07:50:11;;;;;;;49.08;28.55;;;3.90;99.90;;;;;;4169485;28;20033;-69
2023/02/10 07:52:11;;;;;;;60.25;30.65;;;3.90;99.90;;;;;;4169345;28;20076;-66
2023/02/10 07:54:12;;;;;;;55.80;30.70;;;3.90;99.90;;;;;;4171069;28;20048;-66
2023/02/10 07:56:12;;;;;;;58.17;31.60;;;4.00;99.90;;;;;;4170062;28;20492;-66
2023/02/10 07:58:13;;;;;;;55.28;30.08;;;4.00;99.90;;;;;;4169340;28;20558;-66
2023/02/10 08:00:14;;;;;;;61.80;32.13;;;4.00;99.90;;;;;;4167192;28;20082;-66
2023/02/10 08:02:15;;;;;;;57.25;30.75;;;4.10;99.90;;;;;;4170912;28;20061;-66
2023/02/10 08:04:15;;;;;;;56.17;29.92;;;4.20;99.90;;;;;;4169891;28;20127;-66
2023/02/10 08:06:21;;;;;;;56.38;30.13;;;4.30;99.90;;;;;;4166133;28;20041;-66
2023/02/10 08:08:21;;;;;;;51.67;29.17;;;4.40;99.90;;;;;;4165290;28;20044;-66
2023/02/10 08:10:22;;;;;;;61.70;32.33;;;4.60;99.90;;;;;;4168367;28;20079;-66
2023/02/10 08:12:23;;;;;;;69.00;34.78;;;4.70;99.90;;;;;;4167964;28;20501;-67
2023/02/10 08:14:24;;;;;;;53.85;30.75;;;4.80;99.90;;;;;;4166174;28;20036;-66
2023/02/10 08:16:24;;;;;;;62.30;32.08;;;5.00;99.90;;;;;;4166130;28;20060;-66
2023/02/10 08:18:25;;;;;;;56.67;31.88;;;5.10;99.90;;;;;;4168780;28;20120;-66
2023/02/10 08:20:26;;;;;;;51.75;29.23;;;5.10;99.90;;;;;;4171442;28;20037;-66
2023/02/10 08:22:26;;;;;;;55.40;30.95;;;5.20;99.90;;;;;;4169171;28;20044;-66
2023/02/10 08:24:27;;;;;;;55.85;30.25;;;5.10;99.90;;;;;;4168311;28;20550;-66
2023/02/10 08:26:28;;;;;;;69.22;34.50;;;5.10;99.90;;;;;;4182683;28;20049;-66
2023/02/10 08:28:28;;;;;;;69.13;35.75;;;5.00;99.90;;;;;;4176711;28;20400;-66
2023/02/10 08:30:29;;;;;;;72.63;34.78;;;5.00;99.90;;;;;;4179910;28;20036;-67
2023/02/10 08:32:29;;;;;;;72.82;35.60;;;4.80;99.90;;;;;;4180705;28;20036;-67
2023/02/10 08:34:30;;;;;;;85.15;40.63;;;4.80;99.90;;;;;;4177146;28;20106;-66
2023/02/10 08:36:30;;;;;;;76.68;36.92;;;4.70;99.90;;;;;;4179795;28;20029;-66
2023/02/10 08:38:32;;;;;;;76.93;37.17;;;4.60;99.90;;;;;;4181541;28;20491;-66
2023/02/10 08:40:32;;;;;;;73.97;36.17;;;4.60;99.90;;;;;;4185212;28;20060;-66
2023/02/10 08:42:34;;;;;;;72.30;36.05;;;4.60;99.90;;;;;;4180815;28;20040;-66
2023/02/10 08:44:34;;;;;;;76.20;38.83;;;4.60;99.90;;;;;;4180035;28;20586;-66
2023/02/10 08:46:35;;;;;;;78.60;39.97;;;4.50;99.90;;;;;;4176872;28;20099;-66
2023/02/10 08:48:36;;;;;;;78.72;38.85;;;4.50;99.90;;;;;;4179565;28;20036;-66
2023/02/10 08:50:37;;;;;;;88.32;41.97;;;4.50;99.90;;;;;;4176241;28;20815;-67
2023/02/10 08:52:37;;;;;;;74.97;39.25;;;4.40;99.90;;;;;;4179336;28;20399;-66
2023/02/10 08:54:38;;;;;;;85.07;38.92;;;4.40;99.90;;;;;;4183811;28;20400;-66
2023/02/10 08:56:38;;;;;;;72.13;36.40;;;4.40;99.90;;;;;;4182714;28;20043;-66
2023/02/10 08:58:40;;;;;;;74.80;36.85;;;4.40;99.90;;;;;;4187955;28;20056;-66
2023/02/10 09:00:40;;;;;;;74.72;37.47;;;4.50;99.90;;;;;;4180001;28;20037;-66
2023/02/10 09:02:41;;;;;;;77.32;38.30;;;4.50;99.90;;;;;;4189158;28;20059;-66
2023/02/10 09:04:42;;;;;;;86.20;40.10;;;4.50;99.90;;;;;;4182609;28;20083;-66
2023/02/10 09:06:43;;;;;;;81.60;39.75;;;4.50;99.90;;;;;;4192222;28;20040;-66
2023/02/10 09:08:45;;;;;;;77.82;38.38;;;4.60;99.90;;;;;;4205394;28;20135;-66
2023/02/10 09:10:46;;;;;;;77.00;37.45;;;4.60;99.90;;;;;;4187041;28;20082;-66
2023/02/10 09:12:48;;;;;;;77.88;37.38;;;4.70;99.90;;;;;;4180015;28;20546;-66
2023/02/10 09:14:48;;;;;;;81.28;37.30;;;4.70;99.90;;;;;;4181792;28;20592;-66
2023/02/10 09:16:51;;;;;;;73.85;36.65;;;4.70;99.90;;;;;;4181788;28;20028;-66
2023/02/10 09:18:51;;;;;;;;;;;4.80;99.90;;;;;;4184922;28;20090;-67
2023/02/10 09:20:52;;;;;;;75.32;36.50;;;4.80;99.90;;;;;;4195128;28;19966;-66
2023/02/10 09:22:52;;;;;;;73.85;35.67;;;4.80;99.90;;;;;;4204434;28;20032;-67
2023/02/10 09:24:53;;;;;;;70.00;36.63;;;4.80;99.90;;;;;;4204297;28;20497;-67
2023/02/10 09:26:54;;;;;;;76.30;37.40;;;4.80;99.90;;;;;;4182152;28;20148;-67
2023/02/10 09:28:54;;;;;;;69.00;36.13;;;4.90;99.90;;;;;;4186372;28;20044;-67
2023/02/10 09:30:55;;;;;;;73.57;37.53;;;4.90;99.90;;;;;;4167438;28;20033;-66
2023/02/10 09:32:56;;;;;;;78.50;36.70;;;5.00;99.90;;;;;;4171815;28;20439;-68
2023/02/10 09:34:56;;;;;;;68.32;36.13;;;5.00;99.90;;;;;;4172707;28;20044;-67
2023/02/10 09:37:00;;;;;;;73.30;34.90;;;5.00;99.90;;;;;;4171345;28;20037;-68
2023/02/10 09:39:01;;;;;;;81.55;38.30;;;5.10;99.90;;;;;;4175536;28;20037;-67
2023/02/10 09:41:14;;;;;;;73.63;36.75;;;5.10;99.90;;;;;;4171629;28;20045;-66
2023/02/10 09:43:47;;;;;;;78.38;36.55;;;5.20;99.90;;;;;;4168064;28;20039;-67
2023/02/10 09:45:56;;;;;;;84.05;37.63;;;5.20;99.90;;;;;;4168118;28;20033;-67
2023/02/10 09:48:08;;;;;;;76.68;36.55;;;5.30;99.90;;;;;;4172335;28;20041;-67
2023/02/10 09:50:15;;;;;;;75.93;36.23;;;5.30;99.90;;;;;;4159798;28;20480;-67
2023/02/10 09:52:43;;;;;;;74.20;35.47;;;5.40;99.90;;;;;;4167123;28;20072;-67
2023/02/10 09:54:45;;;;;;;72.40;33.60;;;5.50;99.90;;;;;;4186281;28;20028;-67
2023/02/10 09:56:46;;;;;;;72.70;34.95;;;5.60;99.90;;;;;;4188005;28;20017;-67
2023/02/10 09:58:53;;;;;;;72.30;34.92;;;5.60;99.90;;;;;;4186041;28;20052;-67
2023/02/10 10:01:05;;;;;;;68.03;33.00;;;5.70;99.90;;;;;;4185963;28;20029;-67
2023/02/10 10:03:13;;;;;;;60.47;30.17;;;5.80;99.90;;;;;;4186855;28;20187;-67
2023/02/10 10:05:29;;;;;;;66.43;33.63;;;5.90;99.90;;;;;;4187287;28;20667;-67
2023/02/10 10:07:35;;;;;;;63.60;32.80;;;6.00;99.90;;;;;;4189192;28;20113;-67
2023/02/10 10:09:42;;;;;;;66.00;33.53;;;6.10;99.90;;;;;;4186461;28;20032;-67
2023/02/10 10:11:51;;;;;;;60.47;32.25;;;6.20;99.90;;;;;;4187125;28;20036;-67
2023/02/10 10:13:54;;;;;;;62.10;31.95;;;6.30;99.90;;;;;;4187752;28;20095;-66
2023/02/10 10:16:25;;;;;;;62.47;30.63;;;6.50;99.90;;;;;;4185070;28;21118;-66
2023/02/10 10:18:46;;;;;;;61.38;30.20;;;6.60;99.90;;;;;;4187228;28;20036;-66
2023/02/10 10:21:26;;;;;;;72.15;34.90;;;6.70;99.90;;;;;;4185442;28;20033;-65
2023/02/10 10:23:46;;;;;;;59.97;31.88;;;6.80;99.90;;;;;;4184936;28;20064;-66
2023/02/10 10:25:50;;;;;;;61.83;33.58;;;6.90;99.90;;;;;;4182845;28;20401;-65
2023/02/10 10:28:31;;;;;;;69.68;34.55;;;7.00;99.90;;;;;;4182627;28;20406;-66
2023/02/10 10:30:51;;;;;;;57.38;30.38;;;7.00;99.90;;;;;;4179436;28;20040;-65
2023/02/10 10:33:02;;;;;;;58.67;31.27;;;7.10;99.90;;;;;;4183695;28;20496;-65
2023/02/10 10:35:10;;;;;;;56.13;30.73;;;7.20;99.90;;;;;;4183398;28;20052;-65
2023/02/10 10:37:16;;;;;;;59.38;30.77;;;7.30;99.90;;;;;;4182778;28;20043;-66